sensor_id;sensor_type;location;lat;lon;timestamp;P1;durP1;ratioP1;P2;durP2;ratioP2
72785;SDS011;60902;53.876;10.674;2023-03-12T00:00:02;5.82;;;2.20;;
72785;SDS011;60902;53.876;10.674;2023-03-12T00:00:18;5.80;;;1.95;;
72785;SDS011;60902;53.876;10.674;2023-03-12T00:00:29;5.47;;;1.80;;
72785;SDS011;60902;53.876;10.674;2023-03-12T00:00:41;4.57;;;1.75;;
72785;SDS011;60902;53.876;10.674;2023-03-12T00:00:52;4.53;;;1.73;;
72785;SDS011;60902;53.876;10.674;2023-03-12T00:01:08;6.15;;;1.80;;
72785;SDS011;60902;53.876;10.674;2023-03-12T00:01:25;5.57;;;1.95;;
72785;SDS011;60902;53.876;10.674;2023-03-12T00:01:37;5.05;;;2.10;;
72785;SDS011;60902;53.876;10.674;2023-03-12T00:01:49;5.47;;;2.20;;
72785;SDS011;60902;53.876;10.674;2023-03-12T00:02:00;6.53;;;2.37;;
72785;SDS011;60902;53.876;10.674;2023-03-12T00:02:11;7.30;;;2.25;;
72785;SDS011;60902;53.876;10.674;2023-03-12T00:02:22;6.53;;;2.22;;
72785;SDS011;60902;53.876;10.674;2023-03-12T00:02:33;6.30;;;2.10;;
72785;SDS011;60902;53.876;10.674;2023-03-12T00:02:45;5.20;;;1.90;;
72785;SDS011;60902;53.876;10.674;2023-03-12T00:02:56;5.15;;;1.90;;
72785;SDS011;60902;53.876;10.674;2023-03-12T00:03:08;5.50;;;1.92;;
72785;SDS011;60902;53.876;10.674;2023-03-12T00:03:19;6.13;;;2.00;;
72785;SDS011;60902;53.876;10.674;2023-03-12T00:03:30;6.20;;;2.08;;
72785;SDS011;60902;53.876;10.674;2023-03-12T00:03:41;6.60;;;2.00;;
72785;SDS011;60902;53.876;10.674;2023-03-12T00:03:52;6.75;;;2.20;;
72785;SDS011;60902;53.876;10.674;2023-03-12T00:04:04;6.15;;;2.13;;
72785;SDS011;60902;53.876;10.674;2023-03-12T00:04:16;5.47;;;2.05;;
72785;SDS011;60902;53.876;10.674;2023-03-12T00:04:27;5.75;;;2.45;;
72785;SDS011;60902;53.876;10.674;2023-03-12T00:04:38;6.30;;;2.47;;
72785;SDS011;60902;53.876;10.674;2023-03-12T00:04:49;7.07;;;2.58;;
72785;SDS011;60902;53.876;10.674;2023-03-12T00:05:00;6.55;;;2.22;;
72785;SDS011;60902;53.876;10.674;2023-03-12T00:05:11;6.78;;;2.22;;
72785;SDS011;60902;53.876;10.674;2023-03-12T00:05:23;6.68;;;2.22;;
72785;SDS011;60902;53.876;10.674;2023-03-12T00:05:35;6.28;;;2.25;;
72785;SDS011;60902;53.876;10.674;2023-03-12T00:05:46;5.82;;;2.20;;
72785;SDS011;60902;53.876;10.674;2023-03-12T00:05:58;5.25;;;1.98;;
72785;SDS011;60902;53.876;10.674;2023-03-12T00:06:08;5.05;;;2.00;;
72785;SDS011;60902;53.876;10.674;2023-03-12T00:06:20;6.32;;;2.20;;
72785;SDS011;60902;53.876;10.674;2023-03-12T00:06:31;6.30;;;2.17;;
72785;SDS011;60902;53.876;10.674;2023-03-12T00:06:42;6.00;;;2.15;;
72785;SDS011;60902;53.876;10.674;2023-03-12T00:06:54;5.38;;;1.95;;
72785;SDS011;60902;53.876;10.674;2023-03-12T00:07:05;5.97;;;1.88;;
72785;SDS011;60902;53.876;10.674;2023-03-12T00:07:17;5.60;;;1.67;;
72785;SDS011;60902;53.876;10.674;2023-03-12T00:07:29;4.93;;;1.60;;
72785;SDS011;60902;53.876;10.674;2023-03-12T00:07:40;4.28;;;1.85;;
72785;SDS011;60902;53.876;10.674;2023-03-12T00:07:51;4.55;;;2.03;;
72785;SDS011;60902;53.876;10.674;2023-03-12T00:08:02;5.05;;;2.13;;
72785;SDS011;60902;53.876;10.674;2023-03-12T00:08:13;5.70;;;2.20;;
72785;SDS011;60902;53.876;10.674;2023-03-12T00:08:25;5.88;;;2.28;;
72785;SDS011;60902;53.876;10.674;2023-03-12T00:08:36;6.13;;;2.17;;
72785;SDS011;60902;53.876;10.674;2023-03-12T00:08:48;5.60;;;2.03;;
72785;SDS011;60902;53.876;10.674;2023-03-12T00:09:03;5.40;;;2.00;;
72785;SDS011;60902;53.876;10.674;2023-03-12T00:09:14;5.18;;;2.13;;
72785;SDS011;60902;53.876;10.674;2023-03-12T00:09:25;5.60;;;2.10;;
72785;SDS011;60902;53.876;10.674;2023-03-12T00:09:37;6.10;;;2.03;;
72785;SDS011;60902;53.876;10.674;2023-03-12T00:09:49;5.88;;;2.00;;
72785;SDS011;60902;53.876;10.674;2023-03-12T00:10:00;5.20;;;2.10;;
72785;SDS011;60902;53.876;10.674;2023-03-12T00:10:11;5.35;;;2.00;;
72785;SDS011;60902;53.876;10.674;2023-03-12T00:10:23;5.45;;;2.08;;
72785;SDS011;60902;53.876;10.674;2023-03-12T00:10:34;5.38;;;2.05;;
72785;SDS011;60902;53.876;10.674;2023-03-12T00:10:48;5.10;;;2.05;;
72785;SDS011;60902;53.876;10.674;2023-03-12T00:10:59;5.32;;;1.88;;
72785;SDS011;60902;53.876;10.674;2023-03-12T00:11:11;6.05;;;2.03;;
72785;SDS011;60902;53.876;10.674;2023-03-12T00:11:24;5.95;;;2.00;;
72785;SDS011;60902;53.876;10.674;2023-03-12T00:11:35;5.30;;;1.80;;
72785;SDS011;60902;53.876;10.674;2023-03-12T00:11:46;4.78;;;1.83;;
72785;SDS011;60902;53.876;10.674;2023-03-12T00:11:57;4.95;;;2.00;;
72785;SDS011;60902;53.876;10.674;2023-03-12T00:12:08;4.82;;;1.88;;
72785;SDS011;60902;53.876;10.674;2023-03-12T00:12:19;6.22;;;2.00;;
72785;SDS011;60902;53.876;10.674;2023-03-12T00:12:30;6.10;;;2.08;;
72785;SDS011;60902;53.876;10.674;2023-03-12T00:12:41;5.70;;;2.17;;
72785;SDS011;60902;53.876;10.674;2023-03-12T00:12:53;4.70;;;2.10;;
72785;SDS011;60902;53.876;10.674;2023-03-12T00:13:06;5.40;;;2.00;;
72785;SDS011;60902;53.876;10.674;2023-03-12T00:13:17;6.85;;;2.38;;
72785;SDS011;60902;53.876;10.674;2023-03-12T00:13:28;6.88;;;2.33;;
72785;SDS011;60902;53.876;10.674;2023-03-12T00:13:39;6.38;;;2.20;;
72785;SDS011;60902;53.876;10.674;2023-03-12T00:13:51;5.65;;;2.00;;
72785;SDS011;60902;53.876;10.674;2023-03-12T00:14:03;5.00;;;2.05;;
72785;SDS011;60902;53.876;10.674;2023-03-12T00:14:14;5.03;;;2.03;;
72785;SDS011;60902;53.876;10.674;2023-03-12T00:14:27;5.55;;;2.03;;
72785;SDS011;60902;53.876;10.674;2023-03-12T00:14:38;5.10;;;2.00;;
72785;SDS011;60902;53.876;10.674;2023-03-12T00:14:49;4.70;;;2.13;;
72785;SDS011;60902;53.876;10.674;2023-03-12T00:15:01;5.10;;;2.15;;
72785;SDS011;60902;53.876;10.674;2023-03-12T00:15:12;5.25;;;2.00;;
72785;SDS011;60902;53.876;10.674;2023-03-12T00:15:22;4.82;;;1.70;;
72785;SDS011;60902;53.876;10.674;2023-03-12T00:15:34;5.22;;;1.70;;
72785;SDS011;60902;53.876;10.674;2023-03-12T00:15:46;5.03;;;1.77;;
72785;SDS011;60902;53.876;10.674;2023-03-12T00:16:01;5.13;;;1.90;;
72785;SDS011;60902;53.876;10.674;2023-03-12T00:16:14;5.97;;;2.10;;
72785;SDS011;60902;53.876;10.674;2023-03-12T00:16:25;6.13;;;1.90;;
72785;SDS011;60902;53.876;10.674;2023-03-12T00:16:37;5.75;;;2.00;;
72785;SDS011;60902;53.876;10.674;2023-03-12T00:16:50;5.75;;;2.10;;
72785;SDS011;60902;53.876;10.674;2023-03-12T00:17:01;5.43;;;2.20;;
72785;SDS011;60902;53.876;10.674;2023-03-12T00:17:13;6.28;;;2.28;;
72785;SDS011;60902;53.876;10.674;2023-03-12T00:17:24;6.18;;;2.20;;
72785;SDS011;60902;53.876;10.674;2023-03-12T00:17:35;5.88;;;2.10;;
72785;SDS011;60902;53.876;10.674;2023-03-12T00:17:46;6.40;;;2.08;;
72785;SDS011;60902;53.876;10.674;2023-03-12T00:17:58;7.10;;;2.10;;
72785;SDS011;60902;53.876;10.674;2023-03-12T00:18:09;6.65;;;2.00;;
72785;SDS011;60902;53.876;10.674;2023-03-12T00:18:20;5.47;;;2.03;;
72785;SDS011;60902;53.876;10.674;2023-03-12T00:18:31;5.50;;;2.03;;
72785;SDS011;60902;53.876;10.674;2023-03-12T00:18:43;5.78;;;2.13;;
72785;SDS011;60902;53.876;10.674;2023-03-12T00:18:59;5.30;;;1.95;;
72785;SDS011;60902;53.876;10.674;2023-03-12T00:19:11;4.95;;;1.80;;
72785;SDS011;60902;53.876;10.674;2023-03-12T00:19:22;5.30;;;2.00;;
72785;SDS011;60902;53.876;10.674;2023-03-12T00:19:33;6.97;;;2.05;;
72785;SDS011;60902;53.876;10.674;2023-03-12T00:19:44;6.85;;;2.08;;
72785;SDS011;60902;53.876;10.674;2023-03-12T00:19:55;6.93;;;2.10;;
72785;SDS011;60902;53.876;10.674;2023-03-12T00:20:08;5.20;;;2.20;;
72785;SDS011;60902;53.876;10.674;2023-03-12T00:20:19;5.55;;;2.25;;
72785;SDS011;60902;53.876;10.674;2023-03-12T00:20:32;5.37;;;1.97;;
72785;SDS011;60902;53.876;10.674;2023-03-12T00:20:51;6.00;;;2.00;;
72785;SDS011;60902;53.876;10.674;2023-03-12T00:21:03;5.90;;;2.20;;
72785;SDS011;60902;53.876;10.674;2023-03-12T00:21:16;5.88;;;2.17;;
72785;SDS011;60902;53.876;10.674;2023-03-12T00:21:27;5.95;;;2.17;;
72785;SDS011;60902;53.876;10.674;2023-03-12T00:21:39;4.72;;;2.00;;
72785;SDS011;60902;53.876;10.674;2023-03-12T00:21:50;4.72;;;2.00;;
72785;SDS011;60902;53.876;10.674;2023-03-12T00:22:02;4.32;;;1.88;;
72785;SDS011;60902;53.876;10.674;2023-03-12T00:22:13;4.72;;;2.10;;
72785;SDS011;60902;53.876;10.674;2023-03-12T00:22:25;5.97;;;2.30;;
72785;SDS011;60902;53.876;10.674;2023-03-12T00:22:37;6.00;;;2.17;;
72785;SDS011;60902;53.876;10.674;2023-03-12T00:22:51;5.40;;;2.15;;
72785;SDS011;60902;53.876;10.674;2023-03-12T00:23:02;5.72;;;2.60;;
72785;SDS011;60902;53.876;10.674;2023-03-12T00:23:13;5.75;;;2.55;;
72785;SDS011;60902;53.876;10.674;2023-03-12T00:23:24;5.72;;;2.40;;
72785;SDS011;60902;53.876;10.674;2023-03-12T00:23:35;5.65;;;2.15;;
72785;SDS011;60902;53.876;10.674;2023-03-12T00:23:46;5.60;;;2.00;;
72785;SDS011;60902;53.876;10.674;2023-03-12T00:23:58;5.63;;;1.88;;
72785;SDS011;60902;53.876;10.674;2023-03-12T00:24:11;5.93;;;1.85;;
72785;SDS011;60902;53.876;10.674;2023-03-12T00:24:23;5.18;;;2.00;;
72785;SDS011;60902;53.876;10.674;2023-03-12T00:24:35;5.45;;;2.10;;
72785;SDS011;60902;53.876;10.674;2023-03-12T00:24:51;5.93;;;2.15;;
72785;SDS011;60902;53.876;10.674;2023-03-12T00:25:04;6.70;;;2.58;;
72785;SDS011;60902;53.876;10.674;2023-03-12T00:25:16;6.70;;;2.45;;
72785;SDS011;60902;53.876;10.674;2023-03-12T00:25:30;5.93;;;2.22;;
72785;SDS011;60902;53.876;10.674;2023-03-12T00:25:41;5.15;;;2.20;;
72785;SDS011;60902;53.876;10.674;2023-03-12T00:25:52;5.05;;;2.25;;
72785;SDS011;60902;53.876;10.674;2023-03-12T00:26:04;5.07;;;2.20;;
72785;SDS011;60902;53.876;10.674;2023-03-12T00:26:16;6.25;;;2.30;;
72785;SDS011;60902;53.876;10.674;2023-03-12T00:26:28;6.50;;;2.53;;
72785;SDS011;60902;53.876;10.674;2023-03-12T00:26:40;6.28;;;2.38;;
72785;SDS011;60902;53.876;10.674;2023-03-12T00:26:51;6.13;;;2.30;;
72785;SDS011;60902;53.876;10.674;2023-03-12T00:27:02;5.93;;;2.15;;
72785;SDS011;60902;53.876;10.674;2023-03-12T00:27:13;5.53;;;2.20;;
72785;SDS011;60902;53.876;10.674;2023-03-12T00:27:24;5.30;;;2.20;;
72785;SDS011;60902;53.876;10.674;2023-03-12T00:27:36;5.47;;;2.05;;
72785;SDS011;60902;53.876;10.674;2023-03-12T00:27:47;5.22;;;1.92;;
72785;SDS011;60902;53.876;10.674;2023-03-12T00:27:59;5.65;;;1.83;;
72785;SDS011;60902;53.876;10.674;2023-03-12T00:28:10;5.38;;;1.92;;
72785;SDS011;60902;53.876;10.674;2023-03-12T00:28:21;5.20;;;2.13;;
72785;SDS011;60902;53.876;10.674;2023-03-12T00:28:32;5.55;;;2.25;;
72785;SDS011;60902;53.876;10.674;2023-03-12T00:28:44;6.53;;;2.20;;
72785;SDS011;60902;53.876;10.674;2023-03-12T00:28:56;7.68;;;2.20;;
72785;SDS011;60902;53.876;10.674;2023-03-12T00:29:08;7.65;;;2.28;;
72785;SDS011;60902;53.876;10.674;2023-03-12T00:29:19;6.80;;;2.28;;
72785;SDS011;60902;53.876;10.674;2023-03-12T00:29:30;5.68;;;2.38;;
72785;SDS011;60902;53.876;10.674;2023-03-12T00:29:41;5.88;;;2.20;;
72785;SDS011;60902;53.876;10.674;2023-03-12T00:29:52;5.37;;;2.20;;
72785;SDS011;60902;53.876;10.674;2023-03-12T00:30:04;4.97;;;1.92;;
72785;SDS011;60902;53.876;10.674;2023-03-12T00:30:16;4.82;;;1.88;;
72785;SDS011;60902;53.876;10.674;2023-03-12T00:30:29;4.97;;;1.98;;
72785;SDS011;60902;53.876;10.674;2023-03-12T00:30:40;5.43;;;2.00;;
72785;SDS011;60902;53.876;10.674;2023-03-12T00:30:52;5.40;;;2.00;;
72785;SDS011;60902;53.876;10.674;2023-03-12T00:31:12;5.32;;;1.92;;
72785;SDS011;60902;53.876;10.674;2023-03-12T00:31:25;5.88;;;2.08;;
72785;SDS011;60902;53.876;10.674;2023-03-12T00:31:37;5.55;;;2.05;;
72785;SDS011;60902;53.876;10.674;2023-03-12T00:31:49;5.20;;;2.00;;
72785;SDS011;60902;53.876;10.674;2023-03-12T00:32:00;5.32;;;1.98;;
72785;SDS011;60902;53.876;10.674;2023-03-12T00:32:11;5.40;;;1.90;;
72785;SDS011;60902;53.876;10.674;2023-03-12T00:32:23;5.05;;;1.83;;
72785;SDS011;60902;53.876;10.674;2023-03-12T00:32:34;4.50;;;1.98;;
72785;SDS011;60902;53.876;10.674;2023-03-12T00:32:45;4.72;;;2.17;;
72785;SDS011;60902;53.876;10.674;2023-03-12T00:32:56;5.28;;;2.40;;
72785;SDS011;60902;53.876;10.674;2023-03-12T00:33:07;5.95;;;2.50;;
72785;SDS011;60902;53.876;10.674;2023-03-12T00:33:19;6.18;;;2.38;;
72785;SDS011;60902;53.876;10.674;2023-03-12T00:33:30;6.93;;;2.28;;
72785;SDS011;60902;53.876;10.674;2023-03-12T00:33:43;6.57;;;2.10;;
72785;SDS011;60902;53.876;10.674;2023-03-12T00:33:55;5.93;;;2.00;;
72785;SDS011;60902;53.876;10.674;2023-03-12T00:34:06;5.07;;;1.92;;
72785;SDS011;60902;53.876;10.674;2023-03-12T00:34:17;5.55;;;2.03;;
72785;SDS011;60902;53.876;10.674;2023-03-12T00:34:28;6.97;;;2.40;;
72785;SDS011;60902;53.876;10.674;2023-03-12T00:34:39;7.25;;;2.45;;
72785;SDS011;60902;53.876;10.674;2023-03-12T00:34:50;6.53;;;2.42;;
72785;SDS011;60902;53.876;10.674;2023-03-12T00:35:03;5.97;;;2.35;;
72785;SDS011;60902;53.876;10.674;2023-03-12T00:35:15;6.05;;;2.30;;
72785;SDS011;60902;53.876;10.674;2023-03-12T00:35:26;6.32;;;2.30;;
72785;SDS011;60902;53.876;10.674;2023-03-12T00:35:38;5.78;;;2.08;;
72785;SDS011;60902;53.876;10.674;2023-03-12T00:35:49;5.97;;;2.30;;
72785;SDS011;60902;53.876;10.674;2023-03-12T00:36:00;5.40;;;2.17;;
72785;SDS011;60902;53.876;10.674;2023-03-12T00:36:11;5.22;;;2.20;;
72785;SDS011;60902;53.876;10.674;2023-03-12T00:36:24;6.32;;;2.08;;
72785;SDS011;60902;53.876;10.674;2023-03-12T00:36:37;6.78;;;2.10;;
72785;SDS011;60902;53.876;10.674;2023-03-12T00:36:50;6.28;;;2.28;;
72785;SDS011;60902;53.876;10.674;2023-03-12T00:37:01;5.60;;;2.20;;
72785;SDS011;60902;53.876;10.674;2023-03-12T00:37:12;5.13;;;2.10;;
72785;SDS011;60902;53.876;10.674;2023-03-12T00:37:23;4.63;;;2.10;;
72785;SDS011;60902;53.876;10.674;2023-03-12T00:37:35;5.00;;;2.28;;
72785;SDS011;60902;53.876;10.674;2023-03-12T00:37:47;5.15;;;2.28;;
72785;SDS011;60902;53.876;10.674;2023-03-12T00:37:58;6.03;;;2.20;;
72785;SDS011;60902;53.876;10.674;2023-03-12T00:38:09;5.97;;;2.20;;
72785;SDS011;60902;53.876;10.674;2023-03-12T00:38:21;6.38;;;2.33;;
72785;SDS011;60902;53.876;10.674;2023-03-12T00:38:32;5.82;;;2.20;;
72785;SDS011;60902;53.876;10.674;2023-03-12T00:38:43;5.65;;;2.10;;
72785;SDS011;60902;53.876;10.674;2023-03-12T00:38:55;6.05;;;1.98;;
72785;SDS011;60902;53.876;10.674;2023-03-12T00:39:08;5.65;;;2.20;;
72785;SDS011;60902;53.876;10.674;2023-03-12T00:39:20;5.22;;;2.20;;
72785;SDS011;60902;53.876;10.674;2023-03-12T00:39:32;5.13;;;2.22;;
72785;SDS011;60902;53.876;10.674;2023-03-12T00:39:44;5.75;;;2.40;;
72785;SDS011;60902;53.876;10.674;2023-03-12T00:39:55;6.13;;;2.60;;
72785;SDS011;60902;53.876;10.674;2023-03-12T00:40:07;6.93;;;2.45;;
72785;SDS011;60902;53.876;10.674;2023-03-12T00:40:20;6.80;;;2.45;;
72785;SDS011;60902;53.876;10.674;2023-03-12T00:40:32;6.30;;;2.33;;
72785;SDS011;60902;53.876;10.674;2023-03-12T00:40:43;4.93;;;2.20;;
72785;SDS011;60902;53.876;10.674;2023-03-12T00:40:54;5.32;;;1.92;;
72785;SDS011;60902;53.876;10.674;2023-03-12T00:41:05;4.85;;;1.83;;
72785;SDS011;60902;53.876;10.674;2023-03-12T00:41:16;5.30;;;1.95;;
72785;SDS011;60902;53.876;10.674;2023-03-12T00:41:29;6.18;;;2.30;;
72785;SDS011;60902;53.876;10.674;2023-03-12T00:41:40;6.43;;;2.20;;
72785;SDS011;60902;53.876;10.674;2023-03-12T00:41:51;5.72;;;2.08;;
72785;SDS011;60902;53.876;10.674;2023-03-12T00:42:02;5.35;;;2.13;;
72785;SDS011;60902;53.876;10.674;2023-03-12T00:42:14;5.85;;;2.20;;
72785;SDS011;60902;53.876;10.674;2023-03-12T00:42:25;6.15;;;2.40;;
72785;SDS011;60902;53.876;10.674;2023-03-12T00:42:37;5.40;;;2.03;;
72785;SDS011;60902;53.876;10.674;2023-03-12T00:42:49;4.82;;;1.95;;
72785;SDS011;60902;53.876;10.674;2023-03-12T00:43:00;6.43;;;2.13;;
72785;SDS011;60902;53.876;10.674;2023-03-12T00:43:11;6.60;;;2.35;;
72785;SDS011;60902;53.876;10.674;2023-03-12T00:43:22;6.85;;;2.45;;
72785;SDS011;60902;53.876;10.674;2023-03-12T00:43:33;5.35;;;2.33;;
72785;SDS011;60902;53.876;10.674;2023-03-12T00:43:44;6.20;;;2.38;;
72785;SDS011;60902;53.876;10.674;2023-03-12T00:43:56;5.93;;;2.22;;
72785;SDS011;60902;53.876;10.674;2023-03-12T00:44:07;6.50;;;2.38;;
72785;SDS011;60902;53.876;10.674;2023-03-12T00:44:18;6.38;;;2.20;;
72785;SDS011;60902;53.876;10.674;2023-03-12T00:44:29;6.10;;;2.17;;
72785;SDS011;60902;53.876;10.674;2023-03-12T00:44:40;6.05;;;2.00;;
72785;SDS011;60902;53.876;10.674;2023-03-12T00:44:52;5.82;;;2.00;;
72785;SDS011;60902;53.876;10.674;2023-03-12T00:45:04;5.85;;;2.05;;
72785;SDS011;60902;53.876;10.674;2023-03-12T00:45:16;5.72;;;2.35;;
72785;SDS011;60902;53.876;10.674;2023-03-12T00:45:28;6.93;;;2.58;;
72785;SDS011;60902;53.876;10.674;2023-03-12T00:45:39;6.82;;;2.55;;
72785;SDS011;60902;53.876;10.674;2023-03-12T00:45:51;6.68;;;2.42;;
72785;SDS011;60902;53.876;10.674;2023-03-12T00:46:02;5.50;;;2.30;;
72785;SDS011;60902;53.876;10.674;2023-03-12T00:46:13;5.38;;;2.00;;
72785;SDS011;60902;53.876;10.674;2023-03-12T00:46:24;5.35;;;1.85;;
72785;SDS011;60902;53.876;10.674;2023-03-12T00:46:35;5.78;;;2.13;;
72785;SDS011;60902;53.876;10.674;2023-03-12T00:46:47;5.90;;;2.40;;
72785;SDS011;60902;53.876;10.674;2023-03-12T00:46:58;6.15;;;2.35;;
72785;SDS011;60902;53.876;10.674;2023-03-12T00:47:09;5.67;;;2.10;;
72785;SDS011;60902;53.876;10.674;2023-03-12T00:47:21;5.45;;;1.95;;
72785;SDS011;60902;53.876;10.674;2023-03-12T00:47:32;5.38;;;2.13;;
72785;SDS011;60902;53.876;10.674;2023-03-12T00:47:43;5.65;;;2.53;;
72785;SDS011;60902;53.876;10.674;2023-03-12T00:47:54;6.10;;;2.70;;
72785;SDS011;60902;53.876;10.674;2023-03-12T00:48:05;5.95;;;2.72;;
72785;SDS011;60902;53.876;10.674;2023-03-12T00:48:16;5.57;;;2.30;;
72785;SDS011;60902;53.876;10.674;2023-03-12T00:48:28;5.05;;;1.98;;
72785;SDS011;60902;53.876;10.674;2023-03-12T00:48:41;5.28;;;2.00;;
72785;SDS011;60902;53.876;10.674;2023-03-12T00:48:52;5.65;;;2.10;;
72785;SDS011;60902;53.876;10.674;2023-03-12T00:49:03;6.18;;;2.15;;
72785;SDS011;60902;53.876;10.674;2023-03-12T00:49:14;5.22;;;2.15;;
72785;SDS011;60902;53.876;10.674;2023-03-12T00:49:25;5.60;;;2.50;;
72785;SDS011;60902;53.876;10.674;2023-03-12T00:49:36;5.97;;;2.42;;
72785;SDS011;60902;53.876;10.674;2023-03-12T00:49:49;6.70;;;2.50;;
72785;SDS011;60902;53.876;10.674;2023-03-12T00:50:01;6.50;;;2.50;;
72785;SDS011;60902;53.876;10.674;2023-03-12T00:50:13;5.72;;;2.50;;
72785;SDS011;60902;53.876;10.674;2023-03-12T00:50:24;5.40;;;2.50;;
72785;SDS011;60902;53.876;10.674;2023-03-12T00:50:35;5.90;;;2.53;;
72785;SDS011;60902;53.876;10.674;2023-03-12T00:50:47;6.63;;;2.53;;
72785;SDS011;60902;53.876;10.674;2023-03-12T00:50:58;6.93;;;2.30;;
72785;SDS011;60902;53.876;10.674;2023-03-12T00:51:09;6.25;;;2.15;;
72785;SDS011;60902;53.876;10.674;2023-03-12T00:51:21;5.53;;;2.10;;
72785;SDS011;60902;53.876;10.674;2023-03-12T00:51:32;4.85;;;2.20;;
72785;SDS011;60902;53.876;10.674;2023-03-12T00:51:43;5.38;;;2.55;;
72785;SDS011;60902;53.876;10.674;2023-03-12T00:51:54;6.55;;;2.85;;
72785;SDS011;60902;53.876;10.674;2023-03-12T00:52:06;6.75;;;2.78;;
72785;SDS011;60902;53.876;10.674;2023-03-12T00:52:17;6.15;;;2.60;;
72785;SDS011;60902;53.876;10.674;2023-03-12T00:52:29;5.80;;;2.63;;
72785;SDS011;60902;53.876;10.674;2023-03-12T00:52:41;6.05;;;2.58;;
72785;SDS011;60902;53.876;10.674;2023-03-12T00:52:52;6.03;;;2.35;;
72785;SDS011;60902;53.876;10.674;2023-03-12T00:53:03;5.55;;;2.20;;
72785;SDS011;60902;53.876;10.674;2023-03-12T00:53:15;5.28;;;2.10;;
72785;SDS011;60902;53.876;10.674;2023-03-12T00:53:25;6.28;;;2.22;;
72785;SDS011;60902;53.876;10.674;2023-03-12T00:53:36;6.57;;;2.33;;
72785;SDS011;60902;53.876;10.674;2023-03-12T00:53:48;6.85;;;2.33;;
72785;SDS011;60902;53.876;10.674;2023-03-12T00:53:59;6.68;;;2.40;;
72785;SDS011;60902;53.876;10.674;2023-03-12T00:54:10;6.63;;;2.50;;
72785;SDS011;60902;53.876;10.674;2023-03-12T00:54:23;6.00;;;2.55;;
72785;SDS011;60902;53.876;10.674;2023-03-12T00:54:34;6.15;;;2.63;;
72785;SDS011;60902;53.876;10.674;2023-03-12T00:54:45;5.30;;;2.28;;
72785;SDS011;60902;53.876;10.674;2023-03-12T00:54:58;5.17;;;2.30;;
72785;SDS011;60902;53.876;10.674;2023-03-12T00:55:09;5.60;;;2.20;;
72785;SDS011;60902;53.876;10.674;2023-03-12T00:55:19;5.65;;;2.30;;
72785;SDS011;60902;53.876;10.674;2023-03-12T00:55:31;5.85;;;2.40;;
72785;SDS011;60902;53.876;10.674;2023-03-12T00:55:42;5.10;;;2.50;;
72785;SDS011;60902;53.876;10.674;2023-03-12T00:55:53;5.53;;;2.50;;
72785;SDS011;60902;53.876;10.674;2023-03-12T00:56:05;5.88;;;2.42;;
72785;SDS011;60902;53.876;10.674;2023-03-12T00:56:16;6.00;;;2.30;;
72785;SDS011;60902;53.876;10.674;2023-03-12T00:56:28;6.03;;;2.45;;
72785;SDS011;60902;53.876;10.674;2023-03-12T00:56:39;5.65;;;2.53;;
72785;SDS011;60902;53.876;10.674;2023-03-12T00:56:50;5.57;;;2.33;;
72785;SDS011;60902;53.876;10.674;2023-03-12T00:57:02;6.70;;;2.42;;
72785;SDS011;60902;53.876;10.674;2023-03-12T00:57:13;6.38;;;2.30;;
72785;SDS011;60902;53.876;10.674;2023-03-12T00:57:24;5.95;;;2.22;;
72785;SDS011;60902;53.876;10.674;2023-03-12T00:57:35;5.93;;;2.60;;
72785;SDS011;60902;53.876;10.674;2023-03-12T00:57:47;7.07;;;2.90;;
72785;SDS011;60902;53.876;10.674;2023-03-12T00:57:58;6.82;;;3.03;;
72785;SDS011;60902;53.876;10.674;2023-03-12T00:58:09;5.93;;;2.55;;
72785;SDS011;60902;53.876;10.674;2023-03-12T00:58:20;6.53;;;2.45;;
72785;SDS011;60902;53.876;10.674;2023-03-12T00:58:31;6.82;;;2.40;;
72785;SDS011;60902;53.876;10.674;2023-03-12T00:58:42;7.28;;;2.25;;
72785;SDS011;60902;53.876;10.674;2023-03-12T00:58:53;6.32;;;2.30;;
72785;SDS011;60902;53.876;10.674;2023-03-12T00:59:04;6.30;;;2.25;;
72785;SDS011;60902;53.876;10.674;2023-03-12T00:59:16;5.90;;;2.20;;
72785;SDS011;60902;53.876;10.674;2023-03-12T00:59:27;5.00;;;1.88;;
72785;SDS011;60902;53.876;10.674;2023-03-12T00:59:38;4.90;;;2.15;;
72785;SDS011;60902;53.876;10.674;2023-03-12T00:59:50;5.28;;;2.38;;
72785;SDS011;60902;53.876;10.674;2023-03-12T01:00:00;5.50;;;2.57;;
72785;SDS011;60902;53.876;10.674;2023-03-12T01:00:14;5.32;;;2.30;;
72785;SDS011;60902;53.876;10.674;2023-03-12T01:00:26;5.30;;;2.30;;
72785;SDS011;60902;53.876;10.674;2023-03-12T01:00:37;5.05;;;2.30;;
72785;SDS011;60902;53.876;10.674;2023-03-12T01:00:48;5.35;;;2.20;;
72785;SDS011;60902;53.876;10.674;2023-03-12T01:01:01;5.20;;;2.28;;
72785;SDS011;60902;53.876;10.674;2023-03-12T01:01:12;5.00;;;2.47;;
72785;SDS011;60902;53.876;10.674;2023-03-12T01:01:23;5.07;;;2.25;;
72785;SDS011;60902;53.876;10.674;2023-03-12T01:01:34;5.90;;;2.10;;
72785;SDS011;60902;53.876;10.674;2023-03-12T01:01:45;6.80;;;2.33;;
72785;SDS011;60902;53.876;10.674;2023-03-12T01:01:57;7.03;;;2.58;;
72785;SDS011;60902;53.876;10.674;2023-03-12T01:02:08;6.82;;;2.53;;
72785;SDS011;60902;53.876;10.674;2023-03-12T01:02:20;6.18;;;2.45;;
72785;SDS011;60902;53.876;10.674;2023-03-12T01:02:32;5.85;;;2.45;;
72785;SDS011;60902;53.876;10.674;2023-03-12T01:02:43;6.10;;;2.47;;
72785;SDS011;60902;53.876;10.674;2023-03-12T01:02:55;6.63;;;2.50;;
72785;SDS011;60902;53.876;10.674;2023-03-12T01:03:06;6.50;;;2.58;;
72785;SDS011;60902;53.876;10.674;2023-03-12T01:03:17;5.97;;;2.55;;
72785;SDS011;60902;53.876;10.674;2023-03-12T01:03:28;5.00;;;2.22;;
72785;SDS011;60902;53.876;10.674;2023-03-12T01:03:39;5.07;;;2.15;;
72785;SDS011;60902;53.876;10.674;2023-03-12T01:03:52;5.80;;;2.25;;
72785;SDS011;60902;53.876;10.674;2023-03-12T01:04:03;5.95;;;2.28;;
72785;SDS011;60902;53.876;10.674;2023-03-12T01:04:14;5.40;;;2.15;;
72785;SDS011;60902;53.876;10.674;2023-03-12T01:04:26;6.22;;;2.33;;
72785;SDS011;60902;53.876;10.674;2023-03-12T01:04:37;6.65;;;2.45;;
72785;SDS011;60902;53.876;10.674;2023-03-12T01:04:48;6.43;;;2.47;;
72785;SDS011;60902;53.876;10.674;2023-03-12T01:04:59;6.10;;;2.43;;
72785;SDS011;60902;53.876;10.674;2023-03-12T01:05:11;6.13;;;2.40;;
72785;SDS011;60902;53.876;10.674;2023-03-12T01:05:22;6.03;;;2.22;;
72785;SDS011;60902;53.876;10.674;2023-03-12T01:05:35;6.13;;;2.30;;
72785;SDS011;60902;53.876;10.674;2023-03-12T01:05:46;6.50;;;2.60;;
72785;SDS011;60902;53.876;10.674;2023-03-12T01:06:03;6.68;;;2.50;;
72785;SDS011;60902;53.876;10.674;2023-03-12T01:06:14;6.43;;;2.30;;
72785;SDS011;60902;53.876;10.674;2023-03-12T01:06:25;5.93;;;2.25;;
72785;SDS011;60902;53.876;10.674;2023-03-12T01:06:37;5.50;;;2.13;;
72785;SDS011;60902;53.876;10.674;2023-03-12T01:06:48;5.53;;;2.10;;
72785;SDS011;60902;53.876;10.674;2023-03-12T01:06:59;5.47;;;2.15;;
72785;SDS011;60902;53.876;10.674;2023-03-12T01:07:11;5.38;;;2.30;;
72785;SDS011;60902;53.876;10.674;2023-03-12T01:07:22;5.50;;;2.20;;
72785;SDS011;60902;53.876;10.674;2023-03-12T01:07:34;5.28;;;2.15;;
72785;SDS011;60902;53.876;10.674;2023-03-12T01:07:45;5.35;;;2.05;;
72785;SDS011;60902;53.876;10.674;2023-03-12T01:07:56;5.90;;;2.15;;
72785;SDS011;60902;53.876;10.674;2023-03-12T01:08:07;6.40;;;2.25;;
72785;SDS011;60902;53.876;10.674;2023-03-12T01:08:18;6.95;;;2.40;;
72785;SDS011;60902;53.876;10.674;2023-03-12T01:08:30;6.80;;;2.40;;
72785;SDS011;60902;53.876;10.674;2023-03-12T01:08:41;6.57;;;2.33;;
72785;SDS011;60902;53.876;10.674;2023-03-12T01:08:54;5.93;;;2.30;;